Time;durP1;ratioP1;P1;durP2;ratioP2;P2;SDS_P1;SDS_P2;PMS_P1;PMS_P2;Temp;Humidity;BMP_temperature;BMP_pressure;BME280_temperature;BME280_humidity;BME280_pressure;Samples;Min_cycle;Max_cycle;Signal;HPM_P1;HPM_P2
2022/05/06 00:01:37;;;;;;;21.70;16.03;;;13.70;99.90;;;;;;5154961;27;20437;-57
2022/05/06 00:04:05;;;;;;;25.37;17.53;;;13.70;99.90;;;;;;5155001;27;20531;-57
2022/05/06 00:06:33;;;;;;;28.90;19.00;;;13.70;99.90;;;;;;5158566;27;20442;-56
2022/05/06 00:09:00;;;;;;;20.87;17.03;;;13.70;99.90;;;;;;5159074;27;20452;-57
2022/05/06 00:11:28;;;;;;;20.57;18.37;;;13.70;99.90;;;;;;5158877;27;20479;-57
2022/05/06 00:13:55;;;;;;;23.63;16.83;;;13.70;99.90;;;;;;5158449;27;20437;-57
2022/05/06 00:16:25;;;;;;;22.83;17.43;;;13.70;99.90;;;;;;5158769;27;20455;-57
2022/05/06 00:18:53;;;;;;;23.23;18.23;;;13.70;99.90;;;;;;5158278;27;20563;-57
2022/05/06 00:21:20;;;;;;;26.23;17.27;;;13.60;99.90;;;;;;5158291;27;20487;-57
2022/05/06 00:23:48;;;;;;;20.80;16.40;;;13.60;99.90;;;;;;5158369;27;20886;-57
2022/05/06 00:26:15;;;;;;;27.97;20.67;;;13.80;99.90;;;;;;5158586;27;20468;-57
2022/05/06 00:28:43;;;;;;;28.53;18.33;;;13.70;99.90;;;;;;5158083;27;20478;-56
2022/05/06 00:31:12;;;;;;;24.70;18.30;;;13.60;99.90;;;;;;5158586;27;20452;-57
2022/05/06 00:33:40;;;;;;;21.83;18.30;;;13.60;99.90;;;;;;5158098;27;20497;-57
2022/05/06 00:36:08;;;;;;;25.67;17.03;;;13.60;99.90;;;;;;5158084;27;20425;-57
2022/05/06 00:38:35;;;;;;;19.70;15.90;;;13.60;99.90;;;;;;5158120;27;20586;-57
2022/05/06 00:41:03;;;;;;;19.57;16.50;;;13.60;99.90;;;;;;5157886;27;20452;-57
2022/05/06 00:43:30;;;;;;;27.53;17.17;;;13.60;99.90;;;;;;5157858;27;20483;-57
2022/05/06 00:45:58;;;;;;;23.17;18.57;;;13.70;99.90;;;;;;5158096;27;20523;-57
2022/05/06 00:48:27;;;;;;;26.40;17.30;;;13.80;99.90;;;;;;5158108;27;20461;-57
2022/05/06 00:50:59;;;;;;;23.83;17.73;;;13.70;99.90;;;;;;5158101;27;20441;-57
2022/05/06 00:53:27;;;;;;;19.20;16.77;;;13.70;99.90;;;;;;5157991;27;20425;-57
2022/05/06 00:55:56;;;;;;;27.47;17.70;;;13.80;99.90;;;;;;5157951;27;20476;-57
2022/05/06 00:58:24;;;;;;;33.07;19.23;;;13.70;99.90;;;;;;5157454;27;20975;-57
2022/05/06 01:00:51;;;;;;;26.30;18.27;;;13.80;99.90;;;;;;5157526;27;20953;-57
2022/05/06 01:03:18;;;;;;;22.97;18.00;;;13.70;99.90;;;;;;5157600;27;20911;-57
2022/05/06 01:05:46;;;;;;;27.60;18.63;;;13.70;99.90;;;;;;5157716;27;20418;-57
2022/05/06 01:08:14;;;;;;;26.67;19.03;;;13.70;99.90;;;;;;5157690;27;20886;-57
2022/05/06 01:10:42;;;;;;;24.77;19.00;;;13.70;99.90;;;;;;5157282;27;21018;-57
2022/05/06 01:13:10;;;;;;;28.47;21.17;;;13.70;99.90;;;;;;5157630;27;20801;-57
2022/05/06 01:15:38;;;;;;;25.20;18.13;;;13.80;99.90;;;;;;5156928;27;20926;-57
2022/05/06 01:18:05;;;;;;;24.60;19.47;;;13.80;99.90;;;;;;5157152;27;20488;-57
2022/05/06 01:20:38;;;;;;;26.77;21.23;;;13.70;99.90;;;;;;5157261;27;20778;-58
2022/05/06 01:23:06;;;;;;;22.33;17.90;;;13.70;99.90;;;;;;5157476;27;20433;-58
2022/05/06 01:25:33;;;;;;;26.23;19.50;;;13.60;99.90;;;;;;5157351;27;20452;-57
2022/05/06 01:28:04;;;;;;;23.13;17.70;;;13.60;99.90;;;;;;5156742;27;20465;-57
2022/05/06 01:30:35;;;;;;;29.33;18.83;;;13.60;99.90;;;;;;5157429;27;20841;-57
2022/05/06 01:33:04;;;;;;;24.63;18.73;;;13.60;99.90;;;;;;5156843;27;20441;-57
2022/05/06 01:35:33;;;;;;;29.67;18.97;;;13.60;99.90;;;;;;5157145;27;20451;-57
2022/05/06 01:38:04;;;;;;;28.90;20.70;;;13.70;99.90;;;;;;5156751;27;20495;-58
2022/05/06 01:40:39;;;;;;;26.13;18.57;;;13.60;99.90;;;;;;5156999;27;20425;-58
2022/05/06 01:43:10;;;;;;;29.60;18.93;;;13.50;99.90;;;;;;5157035;27;20427;-57
2022/05/06 01:45:39;;;;;;;25.07;18.80;;;13.60;99.90;;;;;;5156666;27;20895;-57
2022/05/06 01:48:09;;;;;;;23.67;16.93;;;13.60;99.90;;;;;;5156792;27;20552;-57
2022/05/06 01:50:37;;;;;;;30.50;20.13;;;13.50;99.90;;;;;;5156847;27;20448;-58
2022/05/06 01:53:05;;;;;;;24.40;18.47;;;13.50;99.90;;;;;;5156813;27;20448;-57
2022/05/06 01:55:32;;;;;;;24.97;19.10;;;13.60;99.90;;;;;;5156448;27;20953;-57
2022/05/06 01:58:01;;;;;;;22.20;18.77;;;13.60;99.90;;;;;;5156708;27;20564;-57
2022/05/06 02:00:28;;;;;;;21.23;17.53;;;13.60;99.90;;;;;;5156381;27;20456;-57
2022/05/06 02:02:56;;;;;;;23.70;18.90;;;13.60;99.90;;;;;;5156415;27;20429;-57
2022/05/06 02:05:22;;;;;;;25.23;17.97;;;13.50;99.90;;;;;;5156674;27;20523;-57
2022/05/06 02:07:52;;;;;;;30.33;19.23;;;13.50;99.90;;;;;;5156400;27;20452;-57
2022/05/06 02:10:21;;;;;;;24.80;18.77;;;13.50;99.90;;;;;;5156375;27;20531;-57
2022/05/06 02:12:49;;;;;;;24.30;18.03;;;13.50;99.90;;;;;;5156414;27;20441;-57
2022/05/06 02:15:19;;;;;;;21.03;16.67;;;13.60;99.90;;;;;;5156450;27;20470;-57
2022/05/06 02:17:46;;;;;;;26.73;18.33;;;13.50;99.90;;;;;;5155940;27;20472;-57
2022/05/06 02:20:14;;;;;;;22.27;18.43;;;13.50;99.90;;;;;;5156342;27;20802;-57
2022/05/06 02:22:43;;;;;;;23.77;16.93;;;13.50;99.90;;;;;;5156355;27;20445;-57
2022/05/06 02:25:11;;;;;;;24.37;16.67;;;13.50;99.90;;;;;;5155854;27;20451;-57
2022/05/06 02:27:39;;;;;;;26.10;17.30;;;13.50;99.90;;;;;;5155159;27;20800;-57
2022/05/06 02:35:38;;;;;;;29.23;18.20;;;13.40;99.90;;;;;;5155924;27;20407;-57
2022/05/06 02:38:06;;;;;;;22.40;17.17;;;13.40;99.90;;;;;;5155617;27;20497;-58
2022/05/06 02:40:34;;;;;;;25.73;16.63;;;13.30;99.90;;;;;;5155423;27;20934;-57
2022/05/06 02:43:01;;;;;;;23.47;18.50;;;13.30;99.90;;;;;;5155855;27;20445;-57
2022/05/06 02:45:29;;;;;;;22.50;16.53;;;13.30;99.90;;;;;;5156164;27;20859;-57
2022/05/06 02:47:57;;;;;;;22.30;16.30;;;13.40;99.90;;;;;;5155628;27;20516;-57
2022/05/06 02:50:25;;;;;;;21.60;18.10;;;13.30;99.90;;;;;;5155754;27;20449;-57
2022/05/06 02:52:52;;;;;;;18.17;16.13;;;13.20;99.90;;;;;;5155858;27;20446;-57
2022/05/06 02:55:20;;;;;;;21.10;16.23;;;13.30;99.90;;;;;;5155439;27;20822;-57
2022/05/06 02:57:47;;;;;;;25.83;18.27;;;13.30;99.90;;;;;;5155497;27;20480;-57
2022/05/06 03:00:15;;;;;;;18.50;16.60;;;13.30;99.90;;;;;;5155650;27;20491;-57
2022/05/06 03:02:42;;;;;;;22.60;16.30;;;13.30;99.90;;;;;;5155493;27;20445;-57
2022/05/06 03:05:12;;;;;;;24.33;17.20;;;13.30;99.90;;;;;;5155468;27;20436;-58
2022/05/06 03:07:40;;;;;;;21.30;16.87;;;13.30;99.90;;;;;;5155654;27;20456;-58
2022/05/06 03:10:12;;;;;;;20.80;15.87;;;13.30;99.90;;;;;;5155247;27;20430;-57
2022/05/06 03:12:43;;;;;;;18.73;16.20;;;13.30;99.90;;;;;;5155405;27;20446;-58
2022/05/06 03:15:11;;;;;;;23.43;15.57;;;13.30;99.90;;;;;;5155440;27;20425;-57
2022/05/06 03:17:38;;;;;;;20.87;16.60;;;13.20;99.90;;;;;;5154947;27;20451;-57
2022/05/06 03:20:08;;;;;;;19.80;15.97;;;13.20;99.90;;;;;;5155049;27;20472;-57
2022/05/06 03:22:41;;;;;;;20.87;15.20;;;13.20;99.90;;;;;;5155298;27;20433;-57
2022/05/06 03:25:10;;;;;;;19.20;14.57;;;13.30;99.90;;;;;;5155350;27;20421;-57
2022/05/06 03:30:23;;;;;;;18.40;15.70;;;13.30;99.90;;;;;;5155027;27;20408;-57
2022/05/06 03:32:50;;;;;;;22.17;17.00;;;13.30;99.90;;;;;;5155269;27;20504;-57
2022/05/06 03:35:18;;;;;;;16.03;13.90;;;13.20;99.90;;;;;;5155137;27;20451;-57
2022/05/06 03:37:46;;;;;;;20.53;15.63;;;13.20;99.90;;;;;;5155004;27;20448;-57
2022/05/06 03:40:14;;;;;;;17.50;15.70;;;13.30;99.90;;;;;;5156836;27;20948;-57
2022/05/06 03:42:42;;;;;;;22.03;16.47;;;13.10;99.90;;;;;;5159376;27;20445;-57
2022/05/06 03:45:10;;;;;;;19.77;15.73;;;13.10;99.90;;;;;;5159076;27;20531;-57
2022/05/06 03:47:37;;;;;;;24.37;16.67;;;13.10;99.90;;;;;;5159190;27;20858;-57
2022/05/06 03:52:51;;;;;;;22.00;17.83;;;13.20;99.90;;;;;;5159107;27;20447;-58
2022/05/06 03:55:19;;;;;;;20.93;17.83;;;13.10;99.90;;;;;;5159188;27;20440;-57
2022/05/06 03:57:46;;;;;;;22.00;16.70;;;13.10;99.90;;;;;;5158957;27;20495;-57
2022/05/06 04:00:15;;;;;;;21.10;17.07;;;13.10;99.90;;;;;;5158700;27;20440;-57
2022/05/06 04:02:42;;;;;;;21.77;18.80;;;13.10;99.90;;;;;;5158778;27;20444;-57
2022/05/06 04:05:10;;;;;;;21.77;15.73;;;13.20;99.90;;;;;;5158862;27;20528;-57
2022/05/06 04:07:37;;;;;;;18.27;16.10;;;13.20;99.90;;;;;;5158677;27;20463;-58
2022/05/06 04:10:06;;;;;;;20.50;16.67;;;13.10;99.90;;;;;;5158829;27;20444;-57
2022/05/06 04:12:34;;;;;;;20.37;16.63;;;13.10;99.90;;;;;;5158779;27;20447;-57
2022/05/06 04:15:01;;;;;;;18.23;14.60;;;13.10;99.90;;;;;;5158416;27;20445;-57
2022/05/06 04:17:28;;;;;;;19.37;15.73;;;13.10;99.90;;;;;;5158521;27;20785;-57
2022/05/06 04:25:31;;;;;;;16.63;15.00;;;13.30;99.90;;;;;;5158602;27;20396;-57
2022/05/06 04:27:58;;;;;;;16.70;14.07;;;13.20;99.90;;;;;;5158175;27;20517;-57
2022/05/06 04:30:25;;;;;;;17.33;15.43;;;13.20;99.90;;;;;;5158435;27;20440;-57
2022/05/06 04:32:52;;;;;;;15.70;13.50;;;13.20;99.90;;;;;;5158199;27;20437;-57
2022/05/06 04:35:19;;;;;;;20.60;15.27;;;13.20;99.90;;;;;;5158195;27;20447;-57
2022/05/06 04:37:47;;;;;;;18.30;16.00;;;13.20;99.90;;;;;;5157986;27;20444;-57
2022/05/06 04:40:14;;;;;;;17.83;15.93;;;13.10;99.90;;;;;;5157894;27;20464;-57
2022/05/06 04:42:42;;;;;;;22.83;16.00;;;13.10;99.90;;;;;;5157904;27;20449;-57
2022/05/06 04:45:10;;;;;;;18.73;16.73;;;13.20;99.90;;;;;;5158018;27;20452;-57
2022/05/06 04:47:37;;;;;;;15.20;12.63;;;13.10;99.90;;;;;;5158141;27;20460;-57
2022/05/06 04:50:06;;;;;;;19.80;15.57;;;13.10;99.90;;;;;;5157166;27;20533;-57
2022/05/06 04:52:33;;;;;;;19.30;14.97;;;13.10;99.90;;;;;;5157954;27;20437;-57
2022/05/06 04:55:01;;;;;;;19.63;14.60;;;13.10;99.90;;;;;;5158072;27;20448;-57
2022/05/06 04:57:28;;;;;;;18.03;15.10;;;13.00;99.90;;;;;;5157537;27;20445;-57
2022/05/06 04:59:57;;;;;;;19.20;15.90;;;13.00;99.90;;;;;;5157679;27;20482;-57
2022/05/06 05:02:26;;;;;;;16.77;14.97;;;13.00;99.90;;;;;;5157833;27;20445;-58
2022/05/06 05:04:57;;;;;;;18.67;14.40;;;12.90;99.90;;;;;;5157816;27;20448;-58
2022/05/06 05:07:24;;;;;;;18.90;15.90;;;13.00;99.90;;;;;;5157414;27;20842;-57
2022/05/06 05:09:51;;;;;;;18.27;14.10;;;13.00;99.90;;;;;;5157153;27;20958;-57
2022/05/06 05:12:19;;;;;;;21.10;15.30;;;13.00;99.90;;;;;;5157510;27;20515;-57
2022/05/06 05:14:46;;;;;;;15.40;13.90;;;13.00;99.90;;;;;;5157521;27;20445;-57
2022/05/06 05:17:14;;;;;;;17.40;14.63;;;13.00;99.90;;;;;;5157169;27;20444;-57
2022/05/06 05:19:42;;;;;;;17.13;14.00;;;13.00;99.90;;;;;;5157322;27;20487;-57
2022/05/06 05:22:09;;;;;;;15.10;13.60;;;13.00;99.90;;;;;;5156959;27;20445;-57
2022/05/06 05:24:36;;;;;;;20.10;16.17;;;13.00;99.90;;;;;;5157069;27;20484;-57
2022/05/06 05:27:04;;;;;;;16.10;13.03;;;13.00;99.90;;;;;;5157083;27;21069;-56
2022/05/06 05:29:31;;;;;;;21.47;15.57;;;13.00;99.90;;;;;;5156688;27;20967;-58
2022/05/06 05:31:58;;;;;;;15.60;13.60;;;12.90;99.90;;;;;;5157137;27;20499;-57
2022/05/06 05:34:27;;;;;;;14.67;13.17;;;13.00;99.90;;;;;;5157102;27;20795;-57
2022/05/06 05:36:54;;;;;;;19.07;14.60;;;12.80;99.90;;;;;;5157053;27;20441;-57
2022/05/06 05:39:21;;;;;;;17.10;14.17;;;12.80;99.90;;;;;;5156981;27;20485;-57
2022/05/06 05:41:48;;;;;;;19.90;14.73;;;12.80;99.90;;;;;;5157000;27;20445;-57
2022/05/06 05:49:46;;;;;;;19.50;15.50;;;12.70;99.90;;;;;;5156790;27;20500;-57
2022/05/06 05:52:13;;;;;;;19.53;16.23;;;12.60;99.90;;;;;;5156613;27;20537;-57
2022/05/06 05:54:40;;;;;;;20.70;17.27;;;12.60;99.90;;;;;;5156556;27;20440;-58
2022/05/06 05:57:08;;;;;;;22.70;17.87;;;12.60;99.90;;;;;;5156510;27;20449;-57
2022/05/06 05:59:35;;;;;;;23.40;16.57;;;12.60;99.90;;;;;;5156551;27;20480;-57
2022/05/06 06:02:02;;;;;;;20.37;16.40;;;12.60;99.90;;;;;;5155640;27;20467;-57
2022/05/06 06:04:30;;;;;;;17.63;14.93;;;12.70;99.90;;;;;;5156524;27;20437;-57
2022/05/06 06:06:59;;;;;;;20.27;16.00;;;12.70;99.90;;;;;;5156261;27;20447;-57
2022/05/06 06:09:27;;;;;;;27.77;17.40;;;12.60;99.90;;;;;;5156324;27;20533;-58
2022/05/06 06:11:55;;;;;;;19.37;17.17;;;12.60;99.90;;;;;;5156068;27;20440;-57
2022/05/06 06:14:22;;;;;;;21.60;17.33;;;12.60;99.90;;;;;;5156329;27;20536;-57
2022/05/06 06:16:50;;;;;;;18.90;16.90;;;12.60;99.90;;;;;;5156314;27;20440;-57
2022/05/06 06:19:17;;;;;;;20.67;17.07;;;12.60;99.90;;;;;;5156136;27;20535;-57
2022/05/06 06:21:44;;;;;;;18.97;16.97;;;12.60;99.90;;;;;;5155914;27;20433;-57
2022/05/06 06:24:13;;;;;;;17.63;15.20;;;12.60;99.90;;;;;;5155932;27;20490;-57
2022/05/06 06:26:41;;;;;;;18.53;14.47;;;12.80;99.90;;;;;;5155910;27;20959;-57
2022/05/06 06:29:08;;;;;;;22.87;15.40;;;12.80;99.90;;;;;;5155624;27;20477;-57
2022/05/06 06:31:37;;;;;;;17.47;15.63;;;12.80;99.90;;;;;;5155600;27;20793;-57
2022/05/06 06:34:04;;;;;;;22.27;16.40;;;12.80;99.90;;;;;;5155653;27;20448;-57
2022/05/06 06:36:32;;;;;;;21.53;15.77;;;12.80;99.90;;;;;;5155670;27;20522;-57
2022/05/06 06:38:59;;;;;;;19.67;14.47;;;12.90;99.90;;;;;;5155261;27;20488;-57
2022/05/06 06:41:28;;;;;;;17.40;14.77;;;13.00;99.90;;;;;;5155317;27;20441;-60
2022/05/06 06:43:57;;;;;;;16.73;14.53;;;13.00;99.90;;;;;;5155351;27;20874;-57
2022/05/06 06:46:24;;;;;;;16.60;14.90;;;12.90;99.90;;;;;;5155072;27;20930;-57
2022/05/06 06:48:52;;;;;;;27.20;16.10;;;12.90;99.90;;;;;;5155336;27;20475;-57
2022/05/06 06:51:19;;;;;;;18.57;16.00;;;12.90;99.90;;;;;;5155048;27;20488;-57
2022/05/06 06:53:47;;;;;;;21.20;16.57;;;13.00;99.90;;;;;;5154987;27;20460;-57
2022/05/06 06:56:14;;;;;;;17.60;15.70;;;13.00;99.90;;;;;;5154848;27;20489;-57
2022/05/06 06:58:42;;;;;;;18.50;16.57;;;12.90;99.90;;;;;;5155330;27;20496;-58
2022/05/06 07:01:11;;;;;;;18.00;15.97;;;12.90;99.90;;;;;;5155001;27;20474;-57
2022/05/06 07:03:38;;;;;;;24.23;15.53;;;13.00;99.90;;;;;;5154984;27;20441;-57
2022/05/06 07:14:21;;;;;;;21.33;18.00;;;13.10;99.90;;;;;;5155006;27;20409;-58
2022/05/06 07:16:49;;;;;;;18.37;16.47;;;13.20;99.90;;;;;;5155342;27;20473;-57
2022/05/06 07:19:16;;;;;;;20.97;16.87;;;13.20;99.90;;;;;;5155080;27;20487;-57
2022/05/06 07:21:44;;;;;;;20.57;16.20;;;13.20;99.90;;;;;;5155191;27;20452;-57
2022/05/06 07:24:11;;;;;;;16.67;14.70;;;13.20;99.90;;;;;;5155199;27;20472;-58
2022/05/06 07:26:38;;;;;;;20.73;14.60;;;13.30;99.90;;;;;;5154835;27;20451;-58
2022/05/06 07:29:05;;;;;;;16.03;14.43;;;13.20;99.90;;;;;;5154669;27;20477;-57
2022/05/06 07:31:34;;;;;;;15.80;14.17;;;13.20;99.90;;;;;;5154917;27;20938;-58
2022/05/06 07:34:01;;;;;;;18.77;15.23;;;13.30;99.90;;;;;;5154708;27;20447;-58
2022/05/06 07:36:28;;;;;;;15.00;13.00;;;13.30;99.90;;;;;;5154840;27;20481;-57
2022/05/06 07:38:55;;;;;;;15.67;13.47;;;13.40;99.90;;;;;;5155158;27;20479;-58
2022/05/06 07:41:22;;;;;;;15.70;12.80;;;13.50;99.90;;;;;;5154435;27;20441;-58
2022/05/06 07:43:50;;;;;;;12.97;11.50;;;13.40;99.90;;;;;;5154764;27;20437;-58
2022/05/06 07:46:17;;;;;;;12.20;11.00;;;13.50;99.90;;;;;;5154907;27;20448;-58
2022/05/06 07:48:45;;;;;;;14.83;13.33;;;13.60;99.90;;;;;;5154583;27;20555;-58
2022/05/06 07:51:12;;;;;;;12.93;11.10;;;13.60;99.90;;;;;;5154942;27;20447;-58
2022/05/06 07:53:40;;;;;;;16.20;11.37;;;13.60;99.90;;;;;;5154945;27;20472;-58
2022/05/06 07:56:07;;;;;;;13.67;11.30;;;13.60;99.90;;;;;;5154520;27;20445;-57
2022/05/06 07:58:34;;;;;;;14.30;11.27;;;13.60;99.90;;;;;;5154783;27;20456;-58
2022/05/06 08:01:01;;;;;;;11.83;10.63;;;13.70;99.90;;;;;;5154559;27;20468;-58
2022/05/06 08:06:14;;;;;;;14.40;11.80;;;13.70;99.90;;;;;;5154557;27;20409;-58
2022/05/06 08:08:42;;;;;;;13.30;10.23;;;13.80;99.90;;;;;;5154187;27;20473;-58
2022/05/06 08:11:09;;;;;;;10.70;9.60;;;13.70;99.90;;;;;;5154321;27;20445;-58
2022/05/06 08:13:36;;;;;;;12.33;11.13;;;13.70;99.90;;;;;;5154207;27;20487;-58
2022/05/06 08:16:04;;;;;;;14.47;11.53;;;13.80;99.90;;;;;;5154316;27;20445;-57
2022/05/06 08:18:31;;;;;;;11.90;10.40;;;13.80;99.90;;;;;;5154526;27;20464;-58
2022/05/06 08:20:58;;;;;;;12.17;11.00;;;13.90;99.90;;;;;;5154110;27;20525;-58
2022/05/06 08:23:27;;;;;;;14.03;10.53;;;14.00;99.90;;;;;;5154210;27;20444;-57
2022/05/06 08:25:54;;;;;;;16.07;12.17;;;14.00;99.90;;;;;;5155765;27;20475;-57
2022/05/06 08:28:22;;;;;;;12.07;10.47;;;13.90;99.90;;;;;;5157900;27;20476;-58
2022/05/06 08:30:50;;;;;;;12.10;10.90;;;14.00;99.90;;;;;;5158343;27;20460;-58
2022/05/06 08:33:19;;;;;;;13.47;10.30;;;14.00;99.90;;;;;;5158191;27;20441;-58
2022/05/06 08:35:46;;;;;;;12.93;10.50;;;13.90;99.90;;;;;;5157948;27;20448;-58
2022/05/06 08:38:15;;;;;;;11.70;10.40;;;14.10;99.90;;;;;;5158173;27;20471;-58
2022/05/06 08:40:44;;;;;;;10.63;9.63;;;14.00;99.90;;;;;;5157664;27;20482;-58
2022/05/06 08:43:11;;;;;;;11.07;10.00;;;14.10;99.90;;;;;;5157796;27;20440;-58
2022/05/06 08:51:11;;;;;;;11.10;10.00;;;14.30;99.90;;;;;;5157623;27;20405;-58
2022/05/06 08:53:39;;;;;;;11.37;10.13;;;14.40;99.90;;;;;;5157891;27;20444;-59
2022/05/06 08:56:08;;;;;;;11.40;10.00;;;14.30;99.90;;;;;;5157846;27;20472;-57
2022/05/06 08:58:37;;;;;;;11.43;9.20;;;14.20;99.90;;;;;;5157471;27;20468;-57
2022/05/06 09:01:06;;;;;;;12.80;9.70;;;14.30;99.90;;;;;;5157666;27;20500;-55
2022/05/06 09:03:33;;;;;;;9.30;8.20;;;14.40;99.90;;;;;;5157431;27;20931;-56
2022/05/06 09:06:01;;;;;;;12.23;9.50;;;14.50;99.90;;;;;;5157724;27;20469;-57
2022/05/06 09:08:38;;;;;;;10.83;9.23;;;14.50;99.90;;;;;;5157524;27;20472;-60
2022/05/06 09:11:08;;;;;;;13.07;11.67;;;14.60;99.90;;;;;;5157075;27;20451;-54
2022/05/06 09:13:37;;;;;;;11.77;9.30;;;14.50;99.90;;;;;;5157179;27;20425;-58
2022/05/06 09:19:12;;;;;;;11.80;8.03;;;14.60;99.90;;;;;;5157096;27;20440;-58
2022/05/06 09:21:39;;;;;;;10.20;9.27;;;14.80;99.90;;;;;;5157225;27;20575;-57
2022/05/06 09:24:19;;;;;;;10.70;9.60;;;15.00;99.90;;;;;;5157189;27;20449;-58
2022/05/06 09:27:03;;;;;;;11.80;9.27;;;15.20;99.90;;;;;;5157026;27;20949;-56
2022/05/06 09:29:33;;;;;;;9.67;8.67;;;15.20;99.90;;;;;;5155103;27;21033;-56
2022/05/06 09:32:21;;;;;;;18.27;9.97;;;15.30;99.90;;;;;;5156910;27;20513;-57
2022/05/06 09:34:51;;;;;;;10.47;9.50;;;15.20;99.90;;;;;;5157114;27;20413;-56
2022/05/06 09:37:34;;;;;;;10.80;9.20;;;15.30;99.90;;;;;;5156897;27;20436;-56
2022/05/06 09:40:07;;;;;;;11.73;8.40;;;15.00;99.90;;;;;;5156688;27;20471;-58
2022/05/06 09:42:37;;;;;;;9.97;7.90;;;15.20;99.90;;;;;;5156505;27;20425;-57
2022/05/06 09:45:05;;;;;;;10.83;8.57;;;15.00;99.90;;;;;;5156338;27;20492;-55
2022/05/06 09:47:33;;;;;;;11.27;8.30;;;14.90;99.90;;;;;;5156479;27;20967;-59
2022/05/06 09:50:01;;;;;;;9.00;8.10;;;15.10;99.90;;;;;;5156476;27;20479;-56
2022/05/06 09:52:28;;;;;;;8.67;7.77;;;15.30;99.90;;;;;;5156414;27;20481;-57
2022/05/06 09:54:57;;;;;;;9.43;8.23;;;15.50;99.90;;;;;;5156433;27;20447;-54
2022/05/06 09:57:24;;;;;;;14.43;8.97;;;15.30;99.90;;;;;;5156369;27;20494;-57
2022/05/06 09:59:53;;;;;;;10.13;9.13;;;15.40;99.90;;;;;;5156099;27;20828;-57
2022/05/06 10:02:20;;;;;;;8.80;7.43;;;15.70;99.90;;;;;;5156164;27;20808;-57
2022/05/06 10:04:49;;;;;;;10.50;8.03;;;15.90;99.90;;;;;;5156541;27;20445;-58
2022/05/06 10:07:17;;;;;;;8.97;8.17;;;16.20;99.90;;;;;;5156174;27;20453;-58
2022/05/06 10:09:54;;;;;;;10.67;8.10;;;16.40;99.90;;;;;;5155962;27;20540;-55
2022/05/06 10:12:23;;;;;;;10.73;7.67;;;16.50;99.90;;;;;;5156055;27;20425;-57
2022/05/06 10:14:53;;;;;;;9.67;7.67;;;16.50;99.90;;;;;;5156199;27;20445;-56
2022/05/06 10:17:48;;;;;;;8.30;7.50;;;16.90;99.90;;;;;;5155797;27;20445;-57
2022/05/06 10:21:00;;;;;;;11.70;8.80;;;17.20;99.90;;;;;;5156248;27;20471;-59
2022/05/06 10:23:46;;;;;;;10.57;6.47;;;17.10;99.90;;;;;;5155800;27;20841;-59
2022/05/06 10:26:39;;;;;;;8.83;7.97;;;17.20;99.90;;;;;;5155946;27;20607;-60
2022/05/06 10:35:09;;;;;;;10.07;8.47;;;18.40;99.90;;;;;;5155603;27;20404;-56
2022/05/06 10:37:43;;;;;;;8.17;7.37;;;18.50;99.90;;;;;;5155871;27;20451;-58
2022/05/06 10:40:33;;;;;;;8.63;7.57;;;18.60;99.90;;;;;;5155170;27;20818;-57
2022/05/06 10:43:04;;;;;;;9.30;6.47;;;18.70;99.90;;;;;;5155610;27;20425;-58
2022/05/06 10:45:34;;;;;;;13.90;7.57;;;19.50;99.90;;;;;;5155144;27;20523;-57
2022/05/06 10:48:02;;;;;;;10.27;7.27;;;19.90;99.90;;;;;;5154973;27;20526;-58
2022/05/06 10:50:39;;;;;;;7.70;7.00;;;20.40;99.90;;;;;;5155586;27;20533;-59
2022/05/06 10:53:06;;;;;;;7.70;6.53;;;19.70;99.90;;;;;;5155425;27;20780;-59
2022/05/06 10:55:34;;;;;;;6.80;6.10;;;19.60;99.90;;;;;;5154965;27;20444;-56
2022/05/06 10:58:04;;;;;;;9.10;6.73;;;19.70;99.90;;;;;;5155220;27;20464;-57
2022/05/06 11:00:33;;;;;;;7.00;6.40;;;19.70;99.90;;;;;;5155236;27;20496;-58
2022/05/06 11:03:01;;;;;;;11.53;6.83;;;19.30;99.90;;;;;;5155064;27;20448;-56
2022/05/06 11:05:31;;;;;;;7.80;6.97;;;19.10;99.90;;;;;;5155180;27;20441;-56
2022/05/06 11:08:04;;;;;;;5.83;5.37;;;19.30;99.90;;;;;;5154775;27;20841;-57
2022/05/06 11:10:34;;;;;;;7.80;6.13;;;19.50;99.90;;;;;;5154972;27;20432;-58
2022/05/06 11:13:07;;;;;;;11.70;6.40;;;19.70;99.90;;;;;;5155011;27;20454;-57
2022/05/06 11:15:36;;;;;;;8.17;5.70;;;20.00;99.90;;;;;;5153109;27;20436;-57
2022/05/06 11:18:06;;;;;;;13.23;7.07;;;20.60;99.90;;;;;;5154549;27;20465;-56
2022/05/06 11:20:35;;;;;;;5.97;5.47;;;20.70;99.90;;;;;;5154450;27;20984;-54
2022/05/06 11:23:05;;;;;;;7.97;6.57;;;20.60;99.90;;;;;;5154995;27;20448;-53
2022/05/06 11:25:33;;;;;;;6.90;6.20;;;;;;;;;;5154784;27;20452;-55
2022/05/06 11:28:02;;;;;;;6.10;5.60;;;20.70;98.70;;;;;;5154962;27;20468;-53
2022/05/06 11:30:30;;;;;;;7.40;6.70;;;21.10;98.70;;;;;;5153968;27;20555;-51
2022/05/06 11:32:59;;;;;;;8.07;7.20;;;20.90;98.30;;;;;;5154958;27;20447;-56
2022/05/06 11:35:33;;;;;;;11.10;6.50;;;20.80;97.90;;;;;;5154715;27;20432;-55
2022/05/06 11:38:02;;;;;;;8.43;7.50;;;20.70;98.30;;;;;;5151178;27;20489;-56
2022/05/06 11:40:34;;;;;;;6.77;5.67;;;21.20;98.30;;;;;;5154432;27;20559;-56
2022/05/06 11:43:03;;;;;;;7.47;6.10;;;21.30;97.90;;;;;;5154686;27;20432;-55
2022/05/06 11:48:18;;;;;;;6.73;5.83;;;21.40;97.20;;;;;;5147693;27;20455;-59
2022/05/06 11:50:49;;;;;;;7.33;5.83;;;21.00;97.70;;;;;;5153056;27;20443;-58
2022/05/06 11:53:19;;;;;;;5.40;4.83;;;20.40;97.20;;;;;;5145893;27;20913;-55
2022/05/06 11:55:47;;;;;;;10.10;6.97;;;20.60;98.50;;;;;;5149093;27;20931;-58
2022/05/06 11:58:16;;;;;;;6.83;6.13;;;20.30;97.90;;;;;;5145840;27;20475;-59
2022/05/06 12:00:45;;;;;;;8.60;6.23;;;19.90;98.90;;;;;;5154360;27;20966;-58
2022/05/06 12:03:17;;;;;;;10.20;6.13;;;19.70;99.10;;;;;;5153256;27;20488;-58
2022/05/06 12:05:44;;;;;;;7.77;6.30;;;19.60;98.50;;;;;;5144327;27;20467;-56
2022/05/06 12:08:26;;;;;;;7.93;5.83;;;19.60;98.90;;;;;;5146799;27;20838;-56
2022/05/06 12:10:59;;;;;;;10.43;6.23;;;19.70;98.20;;;;;;5148201;27;20449;-56
2022/05/06 12:13:34;;;;;;;6.40;5.43;;;19.80;98.40;;;;;;5150557;27;20472;-59
2022/05/06 12:16:07;;;;;;;6.30;5.10;;;20.00;98.30;;;;;;5155659;27;20447;-59
2022/05/06 12:18:34;;;;;;;5.90;5.30;;;20.00;97.50;;;;;;5149337;27;20471;-56
2022/05/06 12:21:17;;;;;;;9.00;5.67;;;20.10;97.50;;;;;;5150835;27;20472;-55
2022/05/06 12:23:52;;;;;;;7.23;5.27;;;19.90;97.80;;;;;;5151970;27;20453;-52
2022/05/06 12:26:37;;;;;;;9.60;5.70;;;20.10;97.70;;;;;;5145915;27;20445;-54
2022/05/06 12:29:18;;;;;;;6.87;5.93;;;20.60;98.10;;;;;;5152625;27;20563;-57
2022/05/06 12:31:46;;;;;;;6.87;5.63;;;20.70;96.50;;;;;;5154594;27;20444;-58
2022/05/06 12:34:13;;;;;;;18.70;7.10;;;20.80;97.10;;;;;;5149850;27;20440;-57
2022/05/06 12:36:40;;;;;;;8.27;5.63;;;20.90;97.30;;;;;;5157056;27;20923;-58
2022/05/06 12:39:20;;;;;;;6.50;5.80;;;20.90;97.40;;;;;;5156070;27;20490;-56
2022/05/06 12:41:47;;;;;;;6.10;5.50;;;20.70;96.60;;;;;;5155190;27;20560;-55
2022/05/06 12:44:19;;;;;;;8.10;6.73;;;20.20;97.10;;;;;;5156529;27;20468;-53
2022/05/06 12:46:47;;;;;;;10.63;6.83;;;19.70;96.80;;;;;;5154478;27;20457;-60
2022/05/06 12:52:00;;;;;;;7.30;6.17;;;19.30;97.40;;;;;;5152131;27;20424;-56
2022/05/06 12:54:28;;;;;;;6.53;5.93;;;19.30;98.00;;;;;;5154868;27;20445;-57
2022/05/06 12:56:56;;;;;;;7.10;6.40;;;19.10;97.80;;;;;;5154399;27;20448;-54
2022/05/06 12:59:23;;;;;;;6.20;5.60;;;19.20;97.90;;;;;;5145871;27;20488;-55
2022/05/06 13:01:51;;;;;;;9.63;5.23;;;19.20;97.90;;;;;;5152260;27;20521;-56
2022/05/06 13:04:18;;;;;;;6.03;5.07;;;19.30;97.70;;;;;;5156489;27;20444;-55
2022/05/06 13:06:46;;;;;;;5.93;5.43;;;19.50;99.20;;;;;;5152530;27;20460;-57
2022/05/06 13:09:14;;;;;;;6.90;5.90;;;19.80;97.70;;;;;;5150799;27;20480;-52
2022/05/06 13:11:42;;;;;;;6.07;5.47;;;19.70;97.30;;;;;;5153749;27;20457;-56
2022/05/06 13:14:09;;;;;;;10.10;6.10;;;19.50;98.00;;;;;;5154357;27;20499;-52
2022/05/06 13:16:37;;;;;;;6.10;5.50;;;19.60;97.80;;;;;;5148391;27;20571;-55
2022/05/06 13:19:06;;;;;;;8.10;6.57;;;19.70;98.40;;;;;;5153073;27;20571;-58
2022/05/06 13:21:33;;;;;;;5.40;5.00;;;19.50;97.80;;;;;;5154170;27;20484;-56
2022/05/06 13:24:00;;;;;;;7.70;5.67;;;19.60;97.20;;;;;;5154249;27;20461;-55
2022/05/06 13:26:28;;;;;;;8.80;5.43;;;19.90;97.80;;;;;;5151723;27;20451;-54
2022/05/06 13:28:56;;;;;;;10.07;6.13;;;20.00;96.60;;;;;;5153143;27;21312;-54
2022/05/06 13:31:24;;;;;;;6.17;5.57;;;19.80;97.90;;;;;;5149111;27;20448;-54
2022/05/06 13:33:51;;;;;;;9.13;6.10;;;19.90;97.10;;;;;;5155837;27;20445;-53
2022/05/06 13:36:18;;;;;;;6.80;5.03;;;19.70;97.80;;;;;;5156278;27;20520;-57